sensor_id;sensor_type;location;lat;lon;timestamp;pressure;altitude;pressure_sealevel;temperature;humidity
62849;BME280;48941;49.516;8.286;2022-12-20T00:01:51;100896.25;;;1.57;100.00
62849;BME280;48941;49.516;8.286;2022-12-20T00:04:20;100902.44;;;1.56;100.00
62849;BME280;48941;49.516;8.286;2022-12-20T00:06:48;100907.63;;;1.58;100.00
62849;BME280;48941;49.516;8.286;2022-12-20T00:09:16;100900.66;;;1.57;100.00
62849;BME280;48941;49.516;8.286;2022-12-20T00:11:44;100896.34;;;1.56;100.00
62849;BME280;48941;49.516;8.286;2022-12-20T00:14:12;100896.34;;;1.56;100.00
62849;BME280;48941;49.516;8.286;2022-12-20T00:16:40;100886.78;;;1.53;100.00
62849;BME280;48941;49.516;8.286;2022-12-20T00:19:09;100894.72;;;1.52;100.00
62849;BME280;48941;49.516;8.286;2022-12-20T00:21:39;100888.59;;;1.51;100.00
62849;BME280;48941;49.516;8.286;2022-12-20T00:24:07;100886.00;;;1.50;100.00
62849;BME280;48941;49.516;8.286;2022-12-20T00:26:35;100893.97;;;1.48;100.00
62849;BME280;48941;49.516;8.286;2022-12-20T00:29:04;100881.69;;;1.49;100.00
62849;BME280;48941;49.516;8.286;2022-12-20T00:31:33;100879.81;;;1.52;100.00
62849;BME280;48941;49.516;8.286;2022-12-20T00:34:01;100873.75;;;1.50;100.00
62849;BME280;48941;49.516;8.286;2022-12-20T00:36:30;100871.09;;;1.52;100.00
62849;BME280;48941;49.516;8.286;2022-12-20T00:39:00;100864.91;;;1.53;100.00
62849;BME280;48941;49.516;8.286;2022-12-20T00:41:29;100873.63;;;1.53;100.00
62849;BME280;48941;49.516;8.286;2022-12-20T00:43:58;100876.34;;;1.52;100.00
62849;BME280;48941;49.516;8.286;2022-12-20T00:46:26;100883.28;;;1.53;100.00
62849;BME280;48941;49.516;8.286;2022-12-20T00:48:54;100888.63;;;1.50;100.00
62849;BME280;48941;49.516;8.286;2022-12-20T00:51:24;100884.31;;;1.49;100.00
62849;BME280;48941;49.516;8.286;2022-12-20T00:53:53;100874.56;;;1.52;100.00
62849;BME280;48941;49.516;8.286;2022-12-20T00:56:22;100877.28;;;1.49;100.00
62849;BME280;48941;49.516;8.286;2022-12-20T00:58:51;100885.16;;;1.49;100.00
62849;BME280;48941;49.516;8.286;2022-12-20T01:01:22;100888.63;;;1.50;100.00
62849;BME280;48941;49.516;8.286;2022-12-20T01:03:51;100887.97;;;1.45;100.00
62849;BME280;48941;49.516;8.286;2022-12-20T01:06:20;100878.44;;;1.42;100.00
62849;BME280;48941;49.516;8.286;2022-12-20T01:08:48;100882.00;;;1.39;100.00
62849;BME280;48941;49.516;8.286;2022-12-20T01:11:17;100875.84;;;1.41;100.00
62849;BME280;48941;49.516;8.286;2022-12-20T01:13:49;100869.78;;;1.38;100.00
62849;BME280;48941;49.516;8.286;2022-12-20T01:16:19;100867.13;;;1.40;100.00
62849;BME280;48941;49.516;8.286;2022-12-20T01:18:48;100881.16;;;1.39;100.00
62849;BME280;48941;49.516;8.286;2022-12-20T01:21:17;100878.47;;;1.41;100.00
62849;BME280;48941;49.516;8.286;2022-12-20T01:23:46;100885.50;;;1.40;100.00
62849;BME280;48941;49.516;8.286;2022-12-20T01:26:15;100877.63;;;1.40;100.00
62849;BME280;48941;49.516;8.286;2022-12-20T01:28:45;100872.31;;;1.42;100.00
62849;BME280;48941;49.516;8.286;2022-12-20T01:31:17;100868.78;;;1.43;100.00
62849;BME280;48941;49.516;8.286;2022-12-20T01:33:46;100861.72;;;1.45;100.00
62849;BME280;48941;49.516;8.286;2022-12-20T01:36:17;100865.09;;;1.48;100.00
62849;BME280;48941;49.516;8.286;2022-12-20T01:38:45;100871.09;;;1.52;100.00
62849;BME280;48941;49.516;8.286;2022-12-20T01:41:14;100856.03;;;1.57;100.00
62849;BME280;48941;49.516;8.286;2022-12-20T01:43:49;100858.59;;;1.58;100.00
62849;BME280;48941;49.516;8.286;2022-12-20T01:46:20;100854.25;;;1.57;100.00
62849;BME280;48941;49.516;8.286;2022-12-20T01:48:51;100845.47;;;1.58;100.00
62849;BME280;48941;49.516;8.286;2022-12-20T01:51:21;100852.41;;;1.59;100.00
62849;BME280;48941;49.516;8.286;2022-12-20T01:53:55;100847.13;;;1.61;100.00
62849;BME280;48941;49.516;8.286;2022-12-20T01:56:24;100846.22;;;1.62;100.00
62849;BME280;48941;49.516;8.286;2022-12-20T01:58:53;100844.31;;;1.66;100.00
62849;BME280;48941;49.516;8.286;2022-12-20T02:01:24;100833.72;;;1.69;100.00
62849;BME280;48941;49.516;8.286;2022-12-20T02:03:54;100835.31;;;1.73;100.00
62849;BME280;48941;49.516;8.286;2022-12-20T02:06:25;100845.78;;;1.74;100.00
62849;BME280;48941;49.516;8.286;2022-12-20T02:08:55;100835.44;;;1.70;100.00
62849;BME280;48941;49.516;8.286;2022-12-20T02:14:31;100833.78;;;1.67;100.00
62849;BME280;48941;49.516;8.286;2022-12-20T02:17:09;100831.94;;;1.69;100.00
62849;BME280;48941;49.516;8.286;2022-12-20T02:20:12;100831.91;;;1.71;100.00
62849;BME280;48941;49.516;8.286;2022-12-20T02:23:07;100812.53;;;1.73;100.00
62849;BME280;48941;49.516;8.286;2022-12-20T02:25:56;100809.91;;;1.73;100.00
62849;BME280;48941;49.516;8.286;2022-12-20T02:28:46;100803.84;;;1.71;100.00
62849;BME280;48941;49.516;8.286;2022-12-20T02:31:25;100806.38;;;1.74;100.00
62849;BME280;48941;49.516;8.286;2022-12-20T02:33:56;100803.72;;;1.76;100.00
62849;BME280;48941;49.516;8.286;2022-12-20T02:36:25;100795.69;;;1.79;100.00
62849;BME280;48941;49.516;8.286;2022-12-20T02:38:53;100794.81;;;1.80;100.00
62849;BME280;48941;49.516;8.286;2022-12-20T02:41:24;100786.56;;;1.89;100.00
62849;BME280;48941;49.516;8.286;2022-12-20T02:43:55;100790.78;;;1.93;100.00
62849;BME280;48941;49.516;8.286;2022-12-20T02:46:43;100791.66;;;1.94;100.00
62849;BME280;48941;49.516;8.286;2022-12-20T02:49:15;100790.66;;;1.96;100.00
62849;BME280;48941;49.516;8.286;2022-12-20T02:51:46;100784.44;;;1.99;100.00
62849;BME280;48941;49.516;8.286;2022-12-20T02:54:18;100778.91;;;2.07;100.00
62849;BME280;48941;49.516;8.286;2022-12-20T02:56:49;100779.59;;;2.12;100.00
62849;BME280;48941;49.516;8.286;2022-12-20T02:59:19;100778.47;;;2.17;100.00
62849;BME280;48941;49.516;8.286;2022-12-20T03:01:51;100773.91;;;2.23;100.00
62849;BME280;48941;49.516;8.286;2022-12-20T03:04:22;100765.03;;;2.25;100.00
62849;BME280;48941;49.516;8.286;2022-12-20T03:06:56;100762.22;;;2.30;100.00
62849;BME280;48941;49.516;8.286;2022-12-20T03:09:24;100756.03;;;2.31;100.00
62849;BME280;48941;49.516;8.286;2022-12-20T03:11:52;100757.63;;;2.35;100.00
62849;BME280;48941;49.516;8.286;2022-12-20T03:14:20;100738.19;;;2.39;100.00
62849;BME280;48941;49.516;8.286;2022-12-20T03:16:49;100738.94;;;2.43;100.00
62849;BME280;48941;49.516;8.286;2022-12-20T03:19:18;100744.97;;;2.45;100.00
62849;BME280;48941;49.516;8.286;2022-12-20T03:21:46;100747.41;;;2.49;100.00
62849;BME280;48941;49.516;8.286;2022-12-20T03:24:14;100751.63;;;2.53;100.00
62849;BME280;48941;49.516;8.286;2022-12-20T03:26:42;100754.13;;;2.56;100.00
62849;BME280;48941;49.516;8.286;2022-12-20T03:29:10;100748.72;;;2.59;100.00
62849;BME280;48941;49.516;8.286;2022-12-20T03:31:37;100746.97;;;2.60;100.00
62849;BME280;48941;49.516;8.286;2022-12-20T03:34:07;100735.47;;;2.63;100.00
62849;BME280;48941;49.516;8.286;2022-12-20T03:36:35;100742.47;;;2.64;100.00
62849;BME280;48941;49.516;8.286;2022-12-20T03:39:03;100737.19;;;2.64;100.00
62849;BME280;48941;49.516;8.286;2022-12-20T03:41:31;100723.97;;;2.65;100.00
62849;BME280;48941;49.516;8.286;2022-12-20T03:43:58;100726.59;;;2.65;100.00
62849;BME280;48941;49.516;8.286;2022-12-20T03:46:26;100733.53;;;2.68;100.00
62849;BME280;48941;49.516;8.286;2022-12-20T03:48:54;100738.69;;;2.69;100.00
62849;BME280;48941;49.516;8.286;2022-12-20T03:51:23;100728.13;;;2.71;100.00
62849;BME280;48941;49.516;8.286;2022-12-20T03:53:51;100740.94;;;2.78;100.00
62849;BME280;48941;49.516;8.286;2022-12-20T03:56:19;100735.88;;;2.74;100.00
62849;BME280;48941;49.516;8.286;2022-12-20T03:58:47;100753.41;;;2.73;100.00
62849;BME280;48941;49.516;8.286;2022-12-20T04:01:17;100749.03;;;2.74;100.00
62849;BME280;48941;49.516;8.286;2022-12-20T04:03:45;100742.78;;;2.76;100.00
62849;BME280;48941;49.516;8.286;2022-12-20T04:06:14;100737.53;;;2.76;100.00
62849;BME280;48941;49.516;8.286;2022-12-20T04:08:44;100727.84;;;2.77;100.00
62849;BME280;48941;49.516;8.286;2022-12-20T04:11:12;100726.84;;;2.79;100.00
62849;BME280;48941;49.516;8.286;2022-12-20T04:13:43;100730.22;;;2.83;100.00
62849;BME280;48941;49.516;8.286;2022-12-20T04:16:12;100725.84;;;2.84;100.00
62849;BME280;48941;49.516;8.286;2022-12-20T04:18:41;100725.84;;;2.84;100.00
62849;BME280;48941;49.516;8.286;2022-12-20T04:21:10;100726.63;;;2.86;100.00
62849;BME280;48941;49.516;8.286;2022-12-20T04:23:40;100729.16;;;2.87;100.00
62849;BME280;48941;49.516;8.286;2022-12-20T04:26:10;100732.53;;;2.91;100.00
62849;BME280;48941;49.516;8.286;2022-12-20T04:28:39;100729.09;;;2.89;100.00
62849;BME280;48941;49.516;8.286;2022-12-20T04:31:06;100733.56;;;2.87;100.00
62849;BME280;48941;49.516;8.286;2022-12-20T04:33:35;100727.31;;;2.89;100.00
62849;BME280;48941;49.516;8.286;2022-12-20T04:36:03;100723.06;;;2.87;100.00
62849;BME280;48941;49.516;8.286;2022-12-20T04:38:32;100720.44;;;2.87;100.00
62849;BME280;48941;49.516;8.286;2022-12-20T04:41:00;100725.75;;;2.85;100.00
62849;BME280;48941;49.516;8.286;2022-12-20T04:43:29;100722.25;;;2.85;100.00
62849;BME280;48941;49.516;8.286;2022-12-20T04:45:57;100727.53;;;2.85;100.00
62849;BME280;48941;49.516;8.286;2022-12-20T04:48:26;100721.41;;;2.84;100.00
62849;BME280;48941;49.516;8.286;2022-12-20T04:51:14;100717.06;;;2.83;100.00
62849;BME280;48941;49.516;8.286;2022-12-20T04:53:43;100725.84;;;2.84;100.00
62849;BME280;48941;49.516;8.286;2022-12-20T04:56:15;100712.59;;;2.85;100.00
62849;BME280;48941;49.516;8.286;2022-12-20T04:58:46;100708.25;;;2.84;100.00
62849;BME280;48941;49.516;8.286;2022-12-20T05:01:15;100716.09;;;2.86;100.00
62849;BME280;48941;49.516;8.286;2022-12-20T05:03:43;100709.91;;;2.87;100.00
62849;BME280;48941;49.516;8.286;2022-12-20T05:06:11;100716.00;;;2.87;100.00
62849;BME280;48941;49.516;8.286;2022-12-20T05:08:39;100715.94;;;2.89;100.00
62849;BME280;48941;49.516;8.286;2022-12-20T05:11:07;100723.00;;;2.88;100.00
62849;BME280;48941;49.516;8.286;2022-12-20T05:13:35;100718.59;;;2.89;100.00
62849;BME280;48941;49.516;8.286;2022-12-20T05:16:05;100721.22;;;2.89;100.00
62849;BME280;48941;49.516;8.286;2022-12-20T05:18:33;100713.25;;;2.90;100.00
62849;BME280;48941;49.516;8.286;2022-12-20T05:21:03;100711.41;;;2.92;100.00
62849;BME280;48941;49.516;8.286;2022-12-20T05:23:49;100698.19;;;2.94;100.00
62849;BME280;48941;49.516;8.286;2022-12-20T05:26:36;100700.75;;;2.95;100.00
62849;BME280;48941;49.516;8.286;2022-12-20T05:29:05;100698.06;;;2.97;100.00
62849;BME280;48941;49.516;8.286;2022-12-20T05:31:34;100705.03;;;2.98;100.00
62849;BME280;48941;49.516;8.286;2022-12-20T05:34:02;100700.69;;;2.97;100.00
62849;BME280;48941;49.516;8.286;2022-12-20T05:36:30;100692.78;;;2.97;100.00
62849;BME280;48941;49.516;8.286;2022-12-20T05:38:58;100698.91;;;2.97;100.00
62849;BME280;48941;49.516;8.286;2022-12-20T05:41:30;100705.09;;;2.96;100.00
62849;BME280;48941;49.516;8.286;2022-12-20T05:43:58;100698.13;;;2.95;100.00
62849;BME280;48941;49.516;8.286;2022-12-20T05:46:26;100695.41;;;2.97;100.00
62849;BME280;48941;49.516;8.286;2022-12-20T05:48:55;100691.09;;;2.96;100.00
62849;BME280;48941;49.516;8.286;2022-12-20T05:51:23;100695.41;;;2.97;100.00
62849;BME280;48941;49.516;8.286;2022-12-20T05:53:51;100691.88;;;2.98;100.00
62849;BME280;48941;49.516;8.286;2022-12-20T05:56:18;100679.56;;;2.98;100.00
62849;BME280;48941;49.516;8.286;2022-12-20T05:58:46;100683.06;;;2.99;100.00
62849;BME280;48941;49.516;8.286;2022-12-20T06:01:14;100683.91;;;2.99;100.00
62849;BME280;48941;49.516;8.286;2022-12-20T06:03:42;100674.25;;;3.00;100.00
62849;BME280;48941;49.516;8.286;2022-12-20T06:06:12;100669.03;;;2.98;100.00
62849;BME280;48941;49.516;8.286;2022-12-20T06:08:41;100666.47;;;2.97;100.00
62849;BME280;48941;49.516;8.286;2022-12-20T06:11:09;100661.16;;;2.98;100.00
62849;BME280;48941;49.516;8.286;2022-12-20T06:13:37;100666.41;;;2.98;100.00
62849;BME280;48941;49.516;8.286;2022-12-20T06:16:05;100670.88;;;2.96;100.00
62849;BME280;48941;49.516;8.286;2022-12-20T06:18:33;100672.59;;;2.97;100.00
62849;BME280;48941;49.516;8.286;2022-12-20T06:21:01;100669.91;;;2.99;100.00
62849;BME280;48941;49.516;8.286;2022-12-20T06:23:30;100655.03;;;2.98;100.00
62849;BME280;48941;49.516;8.286;2022-12-20T06:25:59;100646.22;;;2.99;100.00
62849;BME280;48941;49.516;8.286;2022-12-20T06:28:27;100636.53;;;2.99;100.00
62849;BME280;48941;49.516;8.286;2022-12-20T06:30:57;100633.00;;;3.01;100.00
62849;BME280;48941;49.516;8.286;2022-12-20T06:33:25;100637.41;;;3.00;100.00
62849;BME280;48941;49.516;8.286;2022-12-20T06:35:52;100635.56;;;3.02;100.00
62849;BME280;48941;49.516;8.286;2022-12-20T06:38:20;100642.59;;;3.02;100.00
62849;BME280;48941;49.516;8.286;2022-12-20T06:40:50;100647.06;;;2.99;100.00
62849;BME280;48941;49.516;8.286;2022-12-20T06:43:17;100657.66;;;2.98;100.00
62849;BME280;48941;49.516;8.286;2022-12-20T06:45:45;100659.31;;;3.01;100.00
62849;BME280;48941;49.516;8.286;2022-12-20T06:48:13;100659.31;;;3.01;100.00
62849;BME280;48941;49.516;8.286;2022-12-20T06:50:41;100670.75;;;2.99;100.00
62849;BME280;48941;49.516;8.286;2022-12-20T06:53:09;100675.16;;;2.99;100.00
62849;BME280;48941;49.516;8.286;2022-12-20T06:55:38;100676.09;;;2.98;100.00
62849;BME280;48941;49.516;8.286;2022-12-20T06:58:07;100664.00;;;2.94;100.00
62849;BME280;48941;49.516;8.286;2022-12-20T07:00:35;100660.44;;;2.95;100.00
62849;BME280;48941;49.516;8.286;2022-12-20T07:03:03;100660.38;;;2.96;100.00
62849;BME280;48941;49.516;8.286;2022-12-20T07:05:31;100651.53;;;2.97;100.00
62849;BME280;48941;49.516;8.286;2022-12-20T07:07:59;100644.53;;;2.98;100.00
62849;BME280;48941;49.516;8.286;2022-12-20T07:10:28;100647.00;;;3.01;100.00
62849;BME280;48941;49.516;8.286;2022-12-20T07:12:56;100646.81;;;3.06;100.00
62849;BME280;48941;49.516;8.286;2022-12-20T07:15:25;100649.28;;;3.09;100.00
62849;BME280;48941;49.516;8.286;2022-12-20T07:17:53;100643.03;;;3.11;100.00
62849;BME280;48941;49.516;8.286;2022-12-20T07:20:21;100640.25;;;3.14;100.00
62849;BME280;48941;49.516;8.286;2022-12-20T07:22:49;100647.16;;;3.17;100.00
62849;BME280;48941;49.516;8.286;2022-12-20T07:25:17;100640.00;;;3.21;100.00
62849;BME280;48941;49.516;8.286;2022-12-20T07:27:46;100653.88;;;3.24;100.00
62849;BME280;48941;49.516;8.286;2022-12-20T07:30:15;100650.28;;;3.25;100.00
62849;BME280;48941;49.516;8.286;2022-12-20T07:32:45;100645.13;;;3.24;100.00
62849;BME280;48941;49.516;8.286;2022-12-20T07:35:14;100653.09;;;3.22;100.00
62849;BME280;48941;49.516;8.286;2022-12-20T07:37:42;100660.03;;;3.23;100.00
62849;BME280;48941;49.516;8.286;2022-12-20T07:40:11;100652.25;;;3.22;100.00
62849;BME280;48941;49.516;8.286;2022-12-20T07:42:40;100656.63;;;3.21;100.00
62849;BME280;48941;49.516;8.286;2022-12-20T07:45:14;100658.41;;;3.21;100.00
62849;BME280;48941;49.516;8.286;2022-12-20T07:47:42;100652.25;;;3.22;100.00
62849;BME280;48941;49.516;8.286;2022-12-20T07:50:11;100650.44;;;3.22;100.00
62849;BME280;48941;49.516;8.286;2022-12-20T07:52:41;100641.56;;;3.25;100.00
62849;BME280;48941;49.516;8.286;2022-12-20T07:55:12;100630.81;;;3.29;100.00
62849;BME280;48941;49.516;8.286;2022-12-20T07:57:44;100632.31;;;3.35;100.00
62849;BME280;48941;49.516;8.286;2022-12-20T08:00:15;100623.56;;;3.34;100.00
62849;BME280;48941;49.516;8.286;2022-12-20T08:02:48;100622.56;;;3.37;100.00
62849;BME280;48941;49.516;8.286;2022-12-20T08:05:19;100627.75;;;3.38;100.00
62849;BME280;48941;49.516;8.286;2022-12-20T08:07:47;100622.91;;;3.48;100.00
62849;BME280;48941;49.516;8.286;2022-12-20T08:10:24;100620.84;;;3.55;100.00
62849;BME280;48941;49.516;8.286;2022-12-20T08:12:52;100617.00;;;3.62;100.00
62849;BME280;48941;49.516;8.286;2022-12-20T08:15:21;100613.22;;;3.68;100.00
62849;BME280;48941;49.516;8.286;2022-12-20T08:17:49;100611.38;;;3.70;100.00
62849;BME280;48941;49.516;8.286;2022-12-20T08:20:19;100612.22;;;3.70;100.00
62849;BME280;48941;49.516;8.286;2022-12-20T08:22:47;100618.41;;;3.69;100.00
62849;BME280;48941;49.516;8.286;2022-12-20T08:25:15;100622.88;;;3.67;100.00
62849;BME280;48941;49.516;8.286;2022-12-20T08:27:43;100625.75;;;3.63;100.00
62849;BME280;48941;49.516;8.286;2022-12-20T08:30:11;100624.13;;;3.60;100.00
62849;BME280;48941;49.516;8.286;2022-12-20T08:32:39;100616.28;;;3.58;100.00
62849;BME280;48941;49.516;8.286;2022-12-20T08:35:08;100617.22;;;3.57;100.00
62849;BME280;48941;49.516;8.286;2022-12-20T08:37:37;100619.69;;;3.61;100.00
62849;BME280;48941;49.516;8.286;2022-12-20T08:40:06;100602.75;;;3.66;100.00
62849;BME280;48941;49.516;8.286;2022-12-20T08:42:35;100600.91;;;3.68;100.00
62849;BME280;48941;49.516;8.286;2022-12-20T08:45:03;100591.13;;;3.70;100.00
62849;BME280;48941;49.516;8.286;2022-12-20T08:47:31;100581.25;;;3.75;100.00
62849;BME280;48941;49.516;8.286;2022-12-20T08:49:59;100576.66;;;3.79;100.00
62849;BME280;48941;49.516;8.286;2022-12-20T08:52:28;100578.13;;;3.85;100.00
62849;BME280;48941;49.516;8.286;2022-12-20T08:54:58;100582.19;;;3.92;100.00
62849;BME280;48941;49.516;8.286;2022-12-20T08:57:27;100581.25;;;3.93;100.00
62849;BME280;48941;49.516;8.286;2022-12-20T08:59:55;100585.53;;;3.95;100.00
62849;BME280;48941;49.516;8.286;2022-12-20T09:02:23;100584.44;;;3.99;100.00
62849;BME280;48941;49.516;8.286;2022-12-20T09:04:51;100584.91;;;4.08;100.00
62849;BME280;48941;49.516;8.286;2022-12-20T09:07:19;100589.88;;;4.14;100.00
62849;BME280;48941;49.516;8.286;2022-12-20T09:09:47;100579.78;;;4.22;100.00
62849;BME280;48941;49.516;8.286;2022-12-20T09:12:16;100572.50;;;4.27;100.00
62849;BME280;48941;49.516;8.286;2022-12-20T09:14:44;100579.16;;;4.34;100.00
62849;BME280;48941;49.516;8.286;2022-12-20T09:17:12;100594.91;;;4.36;100.00
62849;BME280;48941;49.516;8.286;2022-12-20T09:19:40;100584.19;;;4.39;100.00
62849;BME280;48941;49.516;8.286;2022-12-20T09:22:08;100581.47;;;4.41;100.00
62849;BME280;48941;49.516;8.286;2022-12-20T09:24:36;100587.06;;;4.52;100.00
62849;BME280;48941;49.516;8.286;2022-12-20T09:27:04;100581.47;;;4.58;100.00
62849;BME280;48941;49.516;8.286;2022-12-20T09:29:33;100574.00;;;4.66;99.89
62849;BME280;48941;49.516;8.286;2022-12-20T09:32:01;100570.03;;;4.75;100.00
62849;BME280;48941;49.516;8.286;2022-12-20T09:34:29;100578.38;;;4.83;99.45
62849;BME280;48941;49.516;8.286;2022-12-20T09:36:57;100576.03;;;4.94;99.14
62849;BME280;48941;49.516;8.286;2022-12-20T09:39:25;100583.28;;;5.07;98.77
62849;BME280;48941;49.516;8.286;2022-12-20T09:41:53;100582.94;;;5.13;97.83
62849;BME280;48941;49.516;8.286;2022-12-20T09:44:24;100578.97;;;5.22;98.13
62849;BME280;48941;49.516;8.286;2022-12-20T09:46:58;100574.97;;;5.30;97.15
62849;BME280;48941;49.516;8.286;2022-12-20T09:49:38;100566.00;;;5.33;96.72
62849;BME280;48941;49.516;8.286;2022-12-20T09:52:21;100559.53;;;5.38;96.30
62849;BME280;48941;49.516;8.286;2022-12-20T09:54:59;100562.78;;;5.44;96.73
62849;BME280;48941;49.516;8.286;2022-12-20T09:57:48;100560.56;;;5.52;96.90
62849;BME280;48941;49.516;8.286;2022-12-20T10:00:20;100554.66;;;5.63;96.07
62849;BME280;48941;49.516;8.286;2022-12-20T10:02:49;100549.97;;;5.68;96.26
62849;BME280;48941;49.516;8.286;2022-12-20T10:05:38;100549.63;;;5.74;95.53
62849;BME280;48941;49.516;8.286;2022-12-20T10:08:16;100547.75;;;5.76;95.22
62849;BME280;48941;49.516;8.286;2022-12-20T10:10:55;100548.50;;;5.78;95.06
62849;BME280;48941;49.516;8.286;2022-12-20T10:13:45;100551.41;;;5.73;95.37
62849;BME280;48941;49.516;8.286;2022-12-20T10:16:28;100558.81;;;5.67;95.40
62849;BME280;48941;49.516;8.286;2022-12-20T10:19:13;100566.94;;;5.64;95.29
62849;BME280;48941;49.516;8.286;2022-12-20T10:21:50;100562.66;;;5.61;95.97
62849;BME280;48941;49.516;8.286;2022-12-20T10:24:26;100575.22;;;5.57;96.35
62849;BME280;48941;49.516;8.286;2022-12-20T10:26:57;100570.09;;;5.54;96.43
62849;BME280;48941;49.516;8.286;2022-12-20T10:29:29;100562.09;;;5.56;96.46
62849;BME280;48941;49.516;8.286;2022-12-20T10:31:59;100553.97;;;5.59;96.58
62849;BME280;48941;49.516;8.286;2022-12-20T10:34:28;100557.22;;;5.64;96.79
62849;BME280;48941;49.516;8.286;2022-12-20T10:37:11;100543.84;;;5.67;96.22
62849;BME280;48941;49.516;8.286;2022-12-20T10:39:41;100534.81;;;5.71;96.08
62849;BME280;48941;49.516;8.286;2022-12-20T10:42:24;100538.00;;;5.76;95.81
62849;BME280;48941;49.516;8.286;2022-12-20T10:44:53;100535.19;;;5.79;95.73
62849;BME280;48941;49.516;8.286;2022-12-20T10:47:30;100534.16;;;5.82;95.42
62849;BME280;48941;49.516;8.286;2022-12-20T10:50:13;100527.00;;;5.84;95.19
62849;BME280;48941;49.516;8.286;2022-12-20T10:52:43;100515.50;;;5.85;95.37
62849;BME280;48941;49.516;8.286;2022-12-20T10:55:31;100503.88;;;5.88;95.13
62849;BME280;48941;49.516;8.286;2022-12-20T10:58:04;100499.44;;;5.88;95.14
62849;BME280;48941;49.516;8.286;2022-12-20T11:00:33;100501.16;;;5.89;95.14
62849;BME280;48941;49.516;8.286;2022-12-20T11:03:04;100486.22;;;5.88;95.02
62849;BME280;48941;49.516;8.286;2022-12-20T11:05:34;100491.34;;;5.91;95.13
62849;BME280;48941;49.516;8.286;2022-12-20T11:08:08;100493.88;;;5.93;95.37
62849;BME280;48941;49.516;8.286;2022-12-20T11:11:15;100483.22;;;5.94;95.24
62849;BME280;48941;49.516;8.286;2022-12-20T11:13:43;100491.00;;;5.97;94.99
62849;BME280;48941;49.516;8.286;2022-12-20T11:16:23;100478.72;;;5.96;94.90
62849;BME280;48941;49.516;8.286;2022-12-20T11:19:04;100483.91;;;5.98;95.02
62849;BME280;48941;49.516;8.286;2022-12-20T11:21:43;100473.25;;;6.00;95.15
62849;BME280;48941;49.516;8.286;2022-12-20T11:24:20;100486.19;;;6.04;94.65
62849;BME280;48941;49.516;8.286;2022-12-20T11:27:03;100473.66;;;6.08;95.08
62849;BME280;48941;49.516;8.286;2022-12-20T11:30:02;100474.31;;;6.11;94.76
62849;BME280;48941;49.516;8.286;2022-12-20T11:32:41;100481.88;;;6.17;94.42
62849;BME280;48941;49.516;8.286;2022-12-20T11:35:17;100480.91;;;6.18;94.63
62849;BME280;48941;49.516;8.286;2022-12-20T11:37:55;100472.91;;;6.20;94.33
62849;BME280;48941;49.516;8.286;2022-12-20T11:40:37;100458.75;;;6.21;94.27
62849;BME280;48941;49.516;8.286;2022-12-20T11:43:24;100442.75;;;6.23;94.32
62849;BME280;48941;49.516;8.286;2022-12-20T11:46:07;100450.69;;;6.23;94.32
62849;BME280;48941;49.516;8.286;2022-12-20T11:48:53;100447.41;;;6.19;94.28
62849;BME280;48941;49.516;8.286;2022-12-20T11:51:29;100438.59;;;6.18;94.35
62849;BME280;48941;49.516;8.286;2022-12-20T11:54:09;100428.22;;;6.15;94.61
62849;BME280;48941;49.516;8.286;2022-12-20T11:56:41;100427.28;;;6.16;94.83
62849;BME280;48941;49.516;8.286;2022-12-20T11:59:21;100425.38;;;6.18;94.82
62849;BME280;48941;49.516;8.286;2022-12-20T12:01:56;100433.97;;;6.22;95.06
62849;BME280;48941;49.516;8.286;2022-12-20T12:04:30;100435.69;;;6.23;94.89
62849;BME280;48941;49.516;8.286;2022-12-20T12:07:04;100431.03;;;6.27;94.71
62849;BME280;48941;49.516;8.286;2022-12-20T12:09:37;100420.19;;;6.31;94.20
62849;BME280;48941;49.516;8.286;2022-12-20T12:12:10;100416.41;;;6.35;94.51
62849;BME280;48941;49.516;8.286;2022-12-20T12:14:47;100414.44;;;6.39;94.14
62849;BME280;48941;49.516;8.286;2022-12-20T12:17:22;100414.22;;;6.42;94.26
62849;BME280;48941;49.516;8.286;2022-12-20T12:19:55;100417.47;;;6.47;94.02
62849;BME280;48941;49.516;8.286;2022-12-20T12:22:28;100417.06;;;6.53;94.04
62849;BME280;48941;49.516;8.286;2022-12-20T12:25:03;100405.34;;;6.57;93.91
62849;BME280;48941;49.516;8.286;2022-12-20T12:27:33;100406.84;;;6.62;93.73
62849;BME280;48941;49.516;8.286;2022-12-20T12:30:01;100396.03;;;6.65;93.37
62849;BME280;48941;49.516;8.286;2022-12-20T12:32:32;100381.66;;;6.69;93.32
62849;BME280;48941;49.516;8.286;2022-12-20T12:35:14;100378.44;;;6.78;93.20
62849;BME280;48941;49.516;8.286;2022-12-20T12:37:54;100368.09;;;6.88;92.55
62849;BME280;48941;49.516;8.286;2022-12-20T12:40:55;100370.59;;;7.04;91.85
62849;BME280;48941;49.516;8.286;2022-12-20T12:43:45;100364.59;;;7.14;90.86
62849;BME280;48941;49.516;8.286;2022-12-20T12:46:14;100353.47;;;7.22;90.69
62849;BME280;48941;49.516;8.286;2022-12-20T12:48:48;100347.78;;;7.28;90.19
62849;BME280;48941;49.516;8.286;2022-12-20T12:51:23;100358.84;;;7.35;89.82
62849;BME280;48941;49.516;8.286;2022-12-20T12:54:01;100346.19;;;7.38;89.78
62849;BME280;48941;49.516;8.286;2022-12-20T12:56:37;100343.25;;;7.43;89.64
62849;BME280;48941;49.516;8.286;2022-12-20T12:59:40;100340.28;;;7.48;89.25
62849;BME280;48941;49.516;8.286;2022-12-20T13:02:24;100341.69;;;7.53;88.81
62849;BME280;48941;49.516;8.286;2022-12-20T13:04:54;100336.16;;;7.56;89.00
62849;BME280;48941;49.516;8.286;2022-12-20T13:07:28;100338.59;;;7.60;88.91
62849;BME280;48941;49.516;8.286;2022-12-20T13:13:20;100321.63;;;7.62;88.50
62849;BME280;48941;49.516;8.286;2022-12-20T13:15:51;100334.97;;;7.61;88.75
62849;BME280;48941;49.516;8.286;2022-12-20T13:18:30;100336.59;;;7.63;88.71
62849;BME280;48941;49.516;8.286;2022-12-20T13:21:34;100344.75;;;7.60;88.67
62849;BME280;48941;49.516;8.286;2022-12-20T13:24:38;100344.09;;;7.56;88.84